SANTA FE DAM CA US current weather conditions

sailwx.info

Wind from 224 at 0 knots gusting 2

Air temperature 18.3° C
Dewpoint 17.7° C

Last reported at 2016-Aug-31 13:57 UTC.
Time now 2016-Aug-31 16:06 UTC

Location: N 34°08' W 117°57'.
View on Google Maps.

See reports from other nearby stations

  
Tides and Currents Weather Stations Pressure Air Temp Water Temp Dewpoint Dewpoint Depression Visibility Wind Speed Wind Dir Waves Ship Positions
date/time (UTC)wind fromknots sea level pressurealtimeterstation pressurevisibilityair tempwater tempwave heightnotes
2016-Aug-31 14:57 251 2 gusting 5 21.1
2016-Aug-31 13:57 224 0 gusting 2 18.3
2016-Aug-31 12:57 244 1 gusting 3 18.3
2016-Aug-31 11:57 254 2 gusting 5 18.3
2016-Aug-31 10:57 254 1 gusting 2 19.4
2016-Aug-31 09:57 247 2 gusting 3 19.4
2016-Aug-31 08:57 258 2 gusting 3 20.6
2016-Aug-31 07:57 259 2 gusting 4 20.0
2016-Aug-31 06:57 235 2 gusting 3 21.7
2016-Aug-31 05:57 256 2 gusting 5 22.2
2016-Aug-31 04:57 243 3 gusting 6 23.3
2016-Aug-31 03:57 234 2 gusting 6 24.4
2016-Aug-31 02:57 227 2 gusting 8 26.7
2016-Aug-31 01:57 237 5 gusting 11 30.0
2016-Aug-31 00:57 235 6 gusting 13 32.2
2016-Aug-30 23:57 231 8 gusting 15 33.9
2016-Aug-30 22:57 236 9 gusting 16 35.6
2016-Aug-30 21:57 207 6 gusting 16 38.3
2016-Aug-30 20:57 215 6 gusting 13 36.7
2016-Aug-30 19:57 248 4 gusting 11 35.0
2016-Aug-30 18:57 240 3 gusting 11 33.3
2016-Aug-30 17:57 326 3 gusting 7 31.1
2016-Aug-30 16:57 272 3 gusting 8 26.1
2016-Aug-30 15:57 247 3 gusting 6 23.9
2016-Aug-30 14:57 075 0 gusting 3 22.8
2016-Aug-30 13:57 257 3 gusting 4 18.3
2016-Aug-30 12:57 245 2 gusting 4 17.8
2016-Aug-30 11:57 241 3 gusting 4 17.8
2016-Aug-30 10:57 012 0 gusting 4 16.7
2016-Aug-30 09:57 251 2 gusting 3 19.4
2016-Aug-30 08:57 257 2 gusting 3 20.0
2016-Aug-30 07:57 251 2 gusting 3 20.0
2016-Aug-30 06:57 072 0 gusting 3 20.6
2016-Aug-30 05:57 276 1 gusting 4 21.1
2016-Aug-30 04:57 230 1 gusting 4 21.7
2016-Aug-30 03:57 216 2 gusting 6 23.3
2016-Aug-30 02:57 227 3 gusting 8 25.0
2016-Aug-30 01:57 234 5 gusting 11 28.9
2016-Aug-30 00:57 214 6 gusting 13 33.3
2016-Aug-29 23:57 222 6 gusting 13 35.0
2016-Aug-29 22:57 211 7 gusting 13 35.6
2016-Aug-29 21:57 232 6 gusting 12 37.8
2016-Aug-29 20:57 252 5 gusting 11 36.1
2016-Aug-29 19:57 249 4 gusting 11 34.4
2016-Aug-29 18:57 206 3 gusting 12 33.3
2016-Aug-29 17:57 240 4 gusting 8 28.9
2016-Aug-29 16:57 311 1 gusting 6 28.3